Time;durP1;ratioP1;P1;durP2;ratioP2;P2;SDS_P1;SDS_P2;PMS_P1;PMS_P2;Temp;Humidity;BMP_temperature;BMP_pressure;BME280_temperature;BME280_humidity;BME280_pressure;Samples;Min_cycle;Max_cycle;Signal;HPM_P1;HPM_P2
2022/06/12 00:01:41;;;;;;;15.77;4.75;;;;;;;;;;6172842;23;20013;-47
2022/06/12 00:04:07;;;;;;;18.02;5.35;;;;;;;;;;6179528;23;20013;-49
2022/06/12 00:06:32;;;;;;;21.83;5.53;;;;;;;;;;6174097;23;20044;-50
2022/06/12 00:08:58;;;;;;;23.88;5.90;;;;;;;;;;6177320;23;20009;-47
2022/06/12 00:11:25;;;;;;;21.08;5.63;;;;;;;;;;6174191;23;20036;-47
2022/06/12 00:13:52;;;;;;;21.83;5.88;;;;;;;;;;6179830;23;20005;-47
2022/06/12 00:16:18;;;;;;;18.25;5.32;;;;;;;;;;6148761;23;20017;-48
2022/06/12 00:18:43;;;;;;;15.48;4.40;;;;;;;;;;6179641;23;20021;-47
2022/06/12 00:21:12;;;;;;;16.55;4.95;;;;;;;;;;6175959;23;20017;-48
2022/06/12 00:23:39;;;;;;;24.85;5.90;;;;;;;;;;6180639;23;20056;-48
2022/06/12 00:26:05;;;;;;;17.92;5.57;;;;;;;;;;6169211;23;20017;-49
2022/06/12 00:28:30;;;;;;;21.02;5.40;;;;;;;;;;6178722;23;20017;-49
2022/06/12 00:30:55;;;;;;;21.13;5.93;;;;;;;;;;6177012;23;20013;-47
2022/06/12 00:33:21;;;;;;;21.95;4.75;;;;;;;;;;6175577;23;20036;-51
2022/06/12 00:35:47;;;;;;;17.08;5.95;;;;;;;;;;6176568;23;20036;-46
2022/06/12 00:38:12;;;;;;;18.27;5.57;;;;;;;;;;6177854;23;20013;-47
2022/06/12 00:40:37;;;;;;;17.77;4.70;;;;;;;;;;6175054;23;20009;-49
2022/06/12 00:43:03;;;;;;;14.95;4.60;;;;;;;;;;6177897;23;20032;-50
2022/06/12 00:45:38;;;;;;;20.45;5.70;;;;;;;;;;6118676;23;20254;-48
2022/06/12 00:48:06;;;;;;;17.05;5.28;;;;;;;;;;6145167;23;20040;-48
2022/06/12 00:50:32;;;;;;;19.40;5.30;;;;;;;;;;6139656;23;20041;-50
2022/06/12 00:52:57;;;;;;;23.05;6.35;;;;;;;;;;6149289;23;20013;-50
2022/06/12 00:55:26;;;;;;;18.75;6.22;;;;;;;;;;6144340;23;20009;-50
2022/06/12 00:57:53;;;;;;;15.43;5.00;;;;;;;;;;6148962;23;20010;-48
2022/06/12 01:00:18;;;;;;;14.68;4.95;;;;;;;;;;6145159;23;20035;-47
2022/06/12 01:02:43;;;;;;;20.08;5.80;;;;;;;;;;6152448;23;20444;-48
2022/06/12 01:07:57;;;;;;;12.23;5.25;;;;;;;;;;6149495;23;20642;-50
2022/06/12 01:10:25;;;;;;;16.92;5.55;;;;;;;;;;6146306;23;20045;-48
2022/06/12 01:12:54;;;;;;;22.55;5.60;;;;;;;;;;6120341;23;20073;-47
2022/06/12 01:15:27;;;;;;;19.17;5.63;;;;;;;;;;6145228;23;20734;-50
2022/06/12 01:17:53;;;;;;;17.13;5.45;;;;;;;;;;6119291;23;20045;-49
2022/06/12 01:20:25;;;;;;;20.15;6.15;;;;;;;;;;6146938;23;20017;-51
2022/06/12 01:22:59;;;;;;;20.80;6.22;;;;;;;;;;6134546;23;20017;-49
2022/06/12 01:25:34;;;;;;;19.42;5.72;;;;;;;;;;6150313;23;20009;-49
2022/06/12 01:28:17;;;;;;;17.75;5.88;;;;;;;;;;6146292;23;20060;-46
2022/06/12 01:30:53;;;;;;;22.05;6.45;;;;;;;;;;6146861;23;20476;-48
2022/06/12 01:33:21;;;;;;;17.65;5.88;;;;;;;;;;6140781;23;20397;-49
2022/06/12 01:35:54;;;;;;;21.95;7.03;;;;;;;;;;6146103;23;20009;-50
2022/06/12 01:38:40;;;;;;;19.27;5.07;;;;;;;;;;6147127;23;20044;-47
2022/06/12 01:41:21;;;;;;;12.20;4.88;;;;;;;;;;6137584;23;20005;-47
2022/06/12 01:43:52;;;;;;;17.38;5.55;;;;;;;;;;6146526;23;20002;-47
2022/06/12 01:46:23;;;;;;;17.00;5.25;;;;;;;;;;6144821;23;20014;-48
2022/06/12 01:49:06;;;;;;;22.27;6.07;;;;;;;;;;6148605;23;20032;-47
2022/06/12 01:51:32;;;;;;;24.90;6.95;;;;;;;;;;6146990;23;20036;-50
2022/06/12 01:53:57;;;;;;;16.58;5.05;;;;;;;;;;6146368;23;20013;-47
2022/06/12 01:56:32;;;;;;;15.23;5.32;;;;;;;;;;6141697;23;20012;-49
2022/06/12 01:59:16;;;;;;;18.65;6.13;;;;;;;;;;6145151;23;20017;-50
2022/06/12 02:01:41;;;;;;;16.83;5.53;;;;;;;;;;6147710;23;20134;-45
2022/06/12 02:04:20;;;;;;;12.02;5.53;;;;;;;;;;6149136;23;20022;-50
2022/06/12 02:06:58;;;;;;;19.00;6.00;;;;;;;;;;6146575;23;20017;-50
2022/06/12 02:09:28;;;;;;;20.92;6.65;;;;;;;;;;6146291;23;20021;-48
2022/06/12 02:15:05;;;;;;;18.75;6.50;;;;;;;;;;6146865;23;20345;-47
2022/06/12 02:17:33;;;;;;;23.70;6.60;;;;;;;;;;6144634;23;20420;-49
2022/06/12 02:19:58;;;;;;;19.48;6.35;;;;;;;;;;6140875;23;20006;-50
2022/06/12 02:22:25;;;;;;;21.30;6.65;;;;;;;;;;6147673;23;20101;-46
2022/06/12 02:25:09;;;;;;;21.98;6.22;;;;;;;;;;6149514;23;20025;-48
2022/06/12 02:27:40;;;;;;;15.45;5.18;;;;;;;;;;6150800;23;20020;-46
2022/06/12 02:30:14;;;;;;;14.73;5.15;;;;;;;;;;6149396;23;20017;-50
2022/06/12 02:32:45;;;;;;;14.63;5.57;;;;;;;;;;6152106;23;20136;-48
2022/06/12 02:35:12;;;;;;;14.88;5.10;;;;;;;;;;6148604;23;20016;-50
2022/06/12 02:37:44;;;;;;;26.33;6.38;;;;;;;;;;6179314;23;20032;-49
2022/06/12 02:40:12;;;;;;;16.42;5.65;;;;;;;;;;6173832;23;20016;-48
2022/06/12 02:42:40;;;;;;;14.60;5.97;;;;;;;;;;6179665;23;20024;-46
2022/06/12 02:45:12;;;;;;;19.90;5.70;;;;;;;;;;6172643;23;20009;-47
2022/06/12 02:47:39;;;;;;;15.25;5.65;;;;;;;;;;6180206;23;20013;-50
2022/06/12 02:50:05;;;;;;;12.68;5.13;;;;;;;;;;6136363;23;20184;-49
2022/06/12 02:52:37;;;;;;;14.05;5.25;;;;;;;;;;6156765;23;20020;-48
2022/06/12 02:55:05;;;;;;;12.95;5.40;;;;;;;;;;6173087;23;20005;-50
2022/06/12 02:57:34;;;;;;;14.07;5.30;;;;;;;;;;6166656;23;20016;-50
2022/06/12 02:59:59;;;;;;;18.08;6.05;;;;;;;;;;6173949;23;20009;-48
2022/06/12 03:02:24;;;;;;;15.98;4.68;;;;;;;;;;6177469;23;20016;-49
2022/06/12 03:05:22;;;;;;;17.42;5.63;;;;;;;;;;6177007;23;20005;-47
2022/06/12 03:07:54;;;;;;;16.80;5.03;;;;;;;;;;6114623;23;20009;-48
2022/06/12 03:10:21;;;;;;;18.92;5.93;;;;;;;;;;6150942;23;20653;-50
2022/06/12 03:12:47;;;;;;;19.65;4.97;;;;;;;;;;6144990;23;20013;-47
2022/06/12 03:15:44;;;;;;;14.90;6.00;;;;;;;;;;6148937;23;20036;-49
2022/06/12 03:18:12;;;;;;;18.38;6.00;;;;;;;;;;6089283;23;20170;-46
2022/06/12 03:21:01;;;;;;;16.42;4.72;;;;;;;;;;6180788;23;20005;-48
2022/06/12 03:23:37;;;;;;;19.60;5.80;;;;;;;;;;6161825;23;20032;-46
2022/06/12 03:26:04;;;;;;;18.40;5.35;;;;;;;;;;6181965;23;20040;-48
2022/06/12 03:28:39;;;;;;;18.40;5.25;;;;;;;;;;6171762;23;20021;-47
2022/06/12 03:31:07;;;;;;;17.35;5.28;;;;;;;;;;6179724;23;20009;-50
2022/06/12 03:33:33;;;;;;;15.63;5.30;;;;;;;;;;6176678;23;20008;-46
2022/06/12 03:36:03;;;;;;;18.95;5.50;;;;;;;;;;6176796;23;20068;-46
2022/06/12 03:38:31;;;;;;;19.15;5.07;;;;;;;;;;6174738;23;20554;-48
2022/06/12 03:41:26;;;;;;;13.68;6.10;;;;;;;;;;6179359;23;20032;-49
2022/06/12 03:43:54;;;;;;;24.63;5.80;;;;;;;;;;6160378;23;20041;-48
2022/06/12 03:46:39;;;;;;;23.48;5.75;;;;;;;;;;6164989;23;20398;-50
2022/06/12 03:49:11;;;;;;;15.90;5.60;;;;;;;;;;6173315;23;20036;-46
2022/06/12 03:51:56;;;;;;;18.63;7.05;;;;;;;;;;6176590;23;20098;-47
2022/06/12 03:54:39;;;;;;;17.48;5.32;;;;;;;;;;6125360;23;20374;-48
2022/06/12 03:59:53;;;;;;;19.60;4.78;;;;;;;;;;6147048;23;20013;-45
2022/06/12 04:02:23;;;;;;;17.13;6.28;;;;;;;;;;6146333;23;20036;-49
2022/06/12 04:04:51;;;;;;;20.50;4.90;;;;;;;;;;6147744;23;20001;-47
2022/06/12 04:07:18;;;;;;;13.73;5.15;;;;;;;;;;6146080;23;20049;-48
2022/06/12 04:09:46;;;;;;;22.10;5.25;;;;;;;;;;6151111;23;20069;-46
2022/06/12 04:12:26;;;;;;;14.25;6.65;;;;;;;;;;6148547;23;20025;-46
2022/06/12 04:14:52;;;;;;;;;;;;;;;;;;6150475;23;20052;-49
2022/06/12 04:17:18;;;;;;;24.67;5.38;;;;;;;;;;6143644;23;19912;-48
2022/06/12 04:19:59;;;;;;;13.70;4.72;;;;;;;;;;6150126;23;20005;-48
2022/06/12 04:22:38;;;;;;;23.55;5.63;;;;;;;;;;6144431;23;20529;-46
2022/06/12 04:25:16;;;;;;;20.57;5.73;;;;;;;;;;6153260;23;20040;-46
2022/06/12 04:27:42;;;;;;;27.30;7.60;;;;;;;;;;6138198;23;20235;-48
2022/06/12 04:30:19;;;;;;;19.25;5.68;;;;;;;;;;6151163;23;20033;-47
2022/06/12 04:32:44;;;;;;;18.80;6.00;;;;;;;;;;6124306;23;20013;-49
2022/06/12 04:35:10;;;;;;;20.95;5.75;;;;;;;;;;6143529;23;20045;-48
2022/06/12 04:37:35;;;;;;;26.35;5.70;;;;;;;;;;6150665;23;20172;-49
2022/06/12 04:40:02;;;;;;;15.32;5.82;;;;;;;;;;6144535;23;20014;-51
2022/06/12 04:42:30;;;;;;;15.55;4.82;;;;;;;;;;6149769;23;20439;-48
2022/06/12 04:44:57;;;;;;;16.67;5.50;;;;;;;;;;6146044;23;20018;-51
2022/06/12 04:47:23;;;;;;;16.65;5.75;;;;;;;;;;6147483;23;20033;-47
2022/06/12 04:49:49;;;;;;;15.80;5.85;;;;;;;;;;6144216;23;20045;-44
2022/06/12 04:52:15;;;;;;;11.88;4.60;;;;;;;;;;6147639;23;20017;-47
2022/06/12 04:54:41;;;;;;;25.42;6.90;;;;;;;;;;6143270;23;20002;-48
2022/06/12 04:57:07;;;;;;;9.77;4.50;;;;;;;;;;6149581;23;20014;-49
2022/06/12 04:59:34;;;;;;;24.52;6.80;;;;;;;;;;6145308;23;20010;-47
2022/06/12 05:01:59;;;;;;;20.02;6.15;;;;;;;;;;6151892;23;20022;-46
2022/06/12 05:04:25;;;;;;;21.17;6.95;;;;;;;;;;6144516;23;20013;-49
2022/06/12 05:06:51;;;;;;;21.50;5.75;;;;;;;;;;6149341;23;20029;-50
2022/06/12 05:09:17;;;;;;;26.52;6.65;;;;;;;;;;6144703;23;20017;-48
2022/06/12 05:11:43;;;;;;;22.08;6.00;;;;;;;;;;6149146;23;20017;-45
2022/06/12 05:14:09;;;;;;;16.77;5.43;;;;;;;;;;6145359;23;20021;-48
2022/06/12 05:16:36;;;;;;;18.17;4.68;;;;;;;;;;6147970;23;20591;-50
2022/06/12 05:19:03;;;;;;;13.80;5.45;;;;;;;;;;6145742;23;20025;-51
2022/06/12 05:21:28;;;;;;;23.15;5.53;;;;;;;;;;6149268;23;20018;-45
2022/06/12 05:23:54;;;;;;;17.60;5.32;;;;;;;;;;6146846;23;20016;-49
2022/06/12 05:26:20;;;;;;;15.45;5.50;;;;;;;;;;6148276;23;20010;-46
2022/06/12 05:28:45;;;;;;;14.23;5.88;;;;;;;;;;6145408;23;20017;-48
2022/06/12 05:31:11;;;;;;;17.95;6.40;;;;;;;;;;6146692;23;20356;-51
2022/06/12 05:33:36;;;;;;;13.90;5.35;;;;;;;;;;6147594;23;20029;-47
2022/06/12 05:36:02;;;;;;;19.27;5.88;;;;;;;;;;6148147;23;20010;-48
2022/06/12 05:38:27;;;;;;;7.47;4.70;;;;;;;;;;6144867;23;20017;-45
2022/06/12 05:40:53;;;;;;;12.57;4.90;;;;;;;;;;6148467;23;20020;-47
2022/06/12 05:43:18;;;;;;;17.83;5.43;;;;;;;;;;6143812;23;20017;-47
2022/06/12 05:45:43;;;;;;;20.55;6.28;;;;;;;;;;6148989;23;20029;-49
2022/06/12 05:48:14;;;;;;;12.73;5.00;;;;;;;;;;6147625;23;20021;-47
2022/06/12 05:50:50;;;;;;;16.85;5.55;;;;;;;;;;6176203;23;20041;-47
2022/06/12 05:53:16;;;;;;;15.30;4.82;;;;;;;;;;6122389;23;20014;-48
2022/06/12 05:55:41;;;;;;;14.73;5.80;;;;;;;;;;6149067;23;20017;-48
2022/06/12 05:58:07;;;;;;;17.92;5.22;;;;;;;;;;6146243;23;20021;-46
2022/06/12 06:00:33;;;;;;;20.38;6.13;;;;;;;;;;6142085;23;20029;-47
2022/06/12 06:02:58;;;;;;;13.90;5.63;;;;;;;;;;6142677;23;20010;-47
2022/06/12 06:05:24;;;;;;;23.05;6.07;;;;;;;;;;6148564;23;20467;-46
2022/06/12 06:07:49;;;;;;;14.60;5.00;;;;;;;;;;6146704;23;20433;-48
2022/06/12 06:10:17;;;;;;;18.60;6.15;;;;;;;;;;6147054;23;20005;-49
2022/06/12 06:12:42;;;;;;;22.25;6.53;;;;;;;;;;6145201;23;20009;-47
2022/06/12 06:15:10;;;;;;;27.00;6.50;;;;;;;;;;6096763;23;20017;-46
2022/06/12 06:17:35;;;;;;;18.88;6.13;;;;;;;;;;6147010;23;20020;-49
2022/06/12 06:20:00;;;;;;;15.90;5.40;;;;;;;;;;6120504;23;20013;-49
2022/06/12 06:22:26;;;;;;;16.45;5.95;;;;;;;;;;6146965;23;20009;-48
2022/06/12 06:24:51;;;;;;;22.00;6.07;;;;;;;;;;6143693;23;20017;-49
2022/06/12 06:27:16;;;;;;;28.55;6.75;;;;;;;;;;6146875;23;20052;-48
2022/06/12 06:29:42;;;;;;;21.92;6.03;;;;;;;;;;6141816;23;20013;-50
2022/06/12 06:32:08;;;;;;;19.30;7.72;;;;;;;;;;6148395;23;20021;-49
2022/06/12 06:34:35;;;;;;;16.38;6.15;;;;;;;;;;6144643;23;20016;-50
2022/06/12 06:37:00;;;;;;;24.77;7.47;;;;;;;;;;6123038;23;20231;-50
2022/06/12 06:39:25;;;;;;;33.90;8.20;;;;;;;;;;6119211;23;20041;-46
2022/06/12 06:41:51;;;;;;;25.40;7.03;;;;;;;;;;6147822;23;20032;-49
2022/06/12 06:47:00;;;;;;;25.70;7.05;;;;;;;;;;6147226;23;20436;-49
2022/06/12 06:49:25;;;;;;;24.30;6.93;;;;;;;;;;6148151;23;20471;-46
2022/06/12 06:51:50;;;;;;;17.95;6.03;;;;;;;;;;6146769;23;20017;-50
2022/06/12 06:54:16;;;;;;;24.90;6.97;;;;;;;;;;6149261;23;20044;-46
2022/06/12 06:56:42;;;;;;;21.85;7.82;;;;;;;;;;6148180;23;20091;-46
2022/06/12 06:59:07;;;;;;;22.42;6.90;;;;;;;;;;6152948;23;20073;-49
2022/06/12 07:01:34;;;;;;;22.40;7.18;;;;;;;;;;6146239;23;20064;-48
2022/06/12 07:03:59;;;;;;;22.08;6.50;;;;;;;;;;6147276;23;20013;-48
2022/06/12 07:06:25;;;;;;;19.88;6.50;;;;;;;;;;6143350;23;20517;-51
2022/06/12 07:08:50;;;;;;;18.75;6.75;;;;;;;;;;6149268;23;20029;-48
2022/06/12 07:11:15;;;;;;;17.38;6.57;;;;;;;;;;6145361;23;20294;-47
2022/06/12 07:13:41;;;;;;;25.08;8.10;;;;;;;;;;6150761;23;20056;-48
2022/06/12 07:16:06;;;;;;;18.60;6.80;;;;;;;;;;6146532;23;20009;-48
2022/06/12 07:18:31;;;;;;;23.40;7.35;;;;;;;;;;6147145;23;20017;-48
2022/06/12 07:21:00;;;;;;;24.88;6.93;;;;;;;;;;6142029;23;20013;-46
2022/06/12 07:23:26;;;;;;;21.80;6.65;;;;;;;;;;6123571;23;20010;-45
2022/06/12 07:26:04;;;;;;;20.42;6.57;;;;;;;;;;6145996;23;20115;-51
2022/06/12 07:28:29;;;;;;;20.80;6.40;;;;;;;;;;6149398;23;20036;-48
2022/06/12 07:30:55;;;;;;;18.15;5.97;;;;;;;;;;6144466;23;20060;-47
2022/06/12 07:33:20;;;;;;;19.15;5.95;;;;;;;;;;6148163;23;20044;-49
2022/06/12 07:35:46;;;;;;;25.88;7.10;;;;;;;;;;6146123;23;20036;-48
2022/06/12 07:38:14;;;;;;;15.18;5.65;;;;;;;;;;6149776;23;20030;-49
2022/06/12 07:40:41;;;;;;;19.98;6.47;;;;;;;;;;6146258;23;20009;-48
2022/06/12 07:43:08;;;;;;;18.92;5.38;;;;;;;;;;6151601;23;20694;-46
2022/06/12 07:45:34;;;;;;;17.13;5.45;;;;;;;;;;6146198;23;20058;-47
2022/06/12 07:47:59;;;;;;;16.73;6.65;;;;;;;;;;6151142;23;20026;-48
2022/06/12 07:50:24;;;;;;;12.63;4.95;;;;;;;;;;6133605;23;20032;-47
2022/06/12 07:52:50;;;;;;;16.50;5.53;;;;;;;;;;6150582;23;20063;-46
2022/06/12 07:55:17;;;;;;;17.60;4.80;;;;;;;;;;6145392;23;20020;-48
2022/06/12 07:57:42;;;;;;;19.88;5.95;;;;;;;;;;6147358;23;20013;-48
2022/06/12 08:00:08;;;;;;;14.05;5.45;;;;;;;;;;6146827;23;20028;-48
2022/06/12 08:02:33;;;;;;;16.90;4.78;;;;;;;;;;6114109;23;20069;-47
2022/06/12 08:04:58;;;;;;;17.73;5.18;;;;;;;;;;6146409;23;20023;-49
2022/06/12 08:07:24;;;;;;;12.65;5.78;;;;;;;;;;6149828;23;20113;-46
2022/06/12 08:09:49;;;;;;;18.70;5.68;;;;;;;;;;6148289;23;20056;-47
2022/06/12 08:12:14;;;;;;;9.73;4.47;;;;;;;;;;6143290;23;20018;-46
2022/06/12 08:14:40;;;;;;;11.65;3.40;;;;;;;;;;6146600;23;20009;-49
2022/06/12 08:17:05;;;;;;;12.55;4.75;;;;;;;;;;6144573;23;20021;-49
2022/06/12 08:22:15;;;;;;;12.93;4.07;;;;;;;;;;6147269;23;20025;-49
2022/06/12 08:24:40;;;;;;;18.73;4.90;;;;;;;;;;6146901;23;20009;-48
2022/06/12 08:27:06;;;;;;;12.30;4.47;;;;;;;;;;6149894;23;20526;-49
2022/06/12 08:29:31;;;;;;;10.02;3.72;;;;;;;;;;6147397;23;20013;-48
2022/06/12 08:31:58;;;;;;;12.90;3.40;;;;;;;;;;6146404;23;20106;-49
2022/06/12 08:34:29;;;;;;;12.43;2.92;;;;;;;;;;6147637;23;20013;-49
2022/06/12 08:36:57;;;;;;;11.15;3.03;;;;;;;;;;6143665;23;20033;-47
2022/06/12 08:39:23;;;;;;;10.57;3.10;;;;;;;;;;6147433;23;20023;-49
2022/06/12 08:41:54;;;;;;;9.30;3.45;;;;;;;;;;6145936;23;20009;-50
2022/06/12 08:44:29;;;;;;;11.40;3.83;;;;;;;;;;6115140;23;20071;-49
2022/06/12 08:47:07;;;;;;;10.77;3.70;;;;;;;;;;6146693;23;20025;-50
2022/06/12 08:49:44;;;;;;;13.55;3.80;;;;;;;;;;6144962;23;20041;-50
2022/06/12 08:52:15;;;;;;;8.35;3.25;;;;;;;;;;6145120;23;20021;-50
2022/06/12 08:54:44;;;;;;;8.77;3.00;;;;;;;;;;6172529;23;20013;-48
2022/06/12 08:57:16;;;;;;;8.68;2.70;;;;;;;;;;6177298;23;20044;-48
2022/06/12 08:59:46;;;;;;;8.15;2.83;;;;;;;;;;6175302;23;20025;-45
2022/06/12 09:02:16;;;;;;;10.20;3.08;;;;;;;;;;6179431;23;20013;-51
2022/06/12 09:04:41;;;;;;;9.20;3.88;;;;;;;;;;6175729;23;20005;-47
2022/06/12 09:07:20;;;;;;;9.32;2.90;;;;;;;;;;6180100;23;20036;-48
2022/06/12 09:09:50;;;;;;;11.45;2.90;;;;;;;;;;6173408;23;20698;-47
2022/06/12 09:12:18;;;;;;;5.63;2.47;;;;;;;;;;6175851;23;20048;-47
2022/06/12 09:14:59;;;;;;;7.65;2.60;;;;;;;;;;6172777;23;20019;-46
2022/06/12 09:17:31;;;;;;;11.57;3.28;;;;;;;;;;6176031;23;20474;-47
2022/06/12 09:20:01;;;;;;;12.15;3.67;;;;;;;;;;6179517;23;20017;-48
2022/06/12 09:22:26;;;;;;;11.13;3.50;;;;;;;;;;6173318;23;20020;-47
2022/06/12 09:25:00;;;;;;;9.90;2.63;;;;;;;;;;6174462;23;20009;-49
2022/06/12 09:27:35;;;;;;;7.75;2.53;;;;;;;;;;6175297;23;20255;-50
2022/06/12 09:30:11;;;;;;;9.52;4.82;;;;;;;;;;6177437;23;20016;-48
2022/06/12 09:32:42;;;;;;;8.88;2.85;;;;;;;;;;6174649;23;20019;-47
2022/06/12 09:35:11;;;;;;;4.25;2.33;;;;;;;;;;6179955;23;20017;-49
2022/06/12 09:40:58;;;;;;;9.68;3.15;;;;;;;;;;6176217;23;20040;-47
2022/06/12 09:43:24;;;;;;;9.50;3.33;;;;;;;;;;6122807;23;20021;-48
2022/06/12 09:46:06;;;;;;;9.27;3.55;;;;;;;;;;6149982;23;20010;-47
2022/06/12 09:48:31;;;;;;;13.98;3.72;;;;;;;;;;6138468;23;20021;-47
2022/06/12 09:51:01;;;;;;;7.78;3.08;;;;;;;;;;6143890;23;20213;-49
2022/06/12 09:53:45;;;;;;;9.18;2.47;;;;;;;;;;6132031;23;20069;-47
2022/06/12 09:56:13;;;;;;;9.43;3.42;;;;;;;;;;6141683;23;20021;-47
2022/06/12 09:58:45;;;;;;;6.10;2.35;;;;;;;;;;6142795;23;20009;-47
2022/06/12 10:01:16;;;;;;;8.10;2.58;;;;;;;;;;6141521;23;20452;-47
2022/06/12 10:03:47;;;;;;;7.00;3.15;;;;;;;;;;6118283;23;20065;-50
2022/06/12 10:06:21;;;;;;;14.15;3.22;;;;;;;;;;6139535;23;20017;-48
2022/06/12 10:08:53;;;;;;;18.08;3.38;;;;;;;;;;6146379;23;20029;-49
2022/06/12 10:11:24;;;;;;;10.98;3.10;;;;;;;;;;6142622;23;20081;-47
2022/06/12 10:13:53;;;;;;;9.25;3.15;;;;;;;;;;6141617;23;20558;-47
2022/06/12 10:16:20;;;;;;;9.18;3.65;;;;;;;;;;6142653;23;20024;-49
2022/06/12 10:18:50;;;;;;;11.75;3.70;;;;;;;;;;6143754;23;20021;-52
2022/06/12 10:21:18;;;;;;;9.48;3.38;;;;;;;;;;6145496;23;20014;-49
2022/06/12 10:23:43;;;;;;;9.70;3.78;;;;;;;;;;6141366;23;20013;-48
2022/06/12 10:26:19;;;;;;;9.55;3.45;;;;;;;;;;6145930;23;20017;-48
2022/06/12 10:28:45;;;;;;;8.55;2.75;;;;;;;;;;6140423;23;20036;-47
2022/06/12 10:31:10;;;;;;;10.55;3.20;;;;;;;;;;6146478;23;20005;-51
2022/06/12 10:33:41;;;;;;;5.80;2.90;;;;;;;;;;6143933;23;20016;-49
2022/06/12 10:36:18;;;;;;;9.32;2.90;;;;;;;;;;6146650;23;20290;-48
2022/06/12 10:38:43;;;;;;;8.57;2.78;;;;;;;;;;6143186;23;20017;-47
2022/06/12 10:41:29;;;;;;;6.30;2.70;;;;;;;;;;6146908;23;20038;-50
2022/06/12 10:43:56;;;;;;;16.40;3.55;;;;;;;;;;6173609;23;20369;-49
2022/06/12 10:46:26;;;;;;;12.75;3.85;;;;;;;;;;6170776;23;20020;-47
2022/06/12 10:48:59;;;;;;;12.93;3.35;;;;;;;;;;6175582;23;20020;-50
2022/06/12 10:51:28;;;;;;;8.38;2.50;;;;;;;;;;6170802;23;20031;-50
2022/06/12 10:53:58;;;;;;;8.35;2.70;;;;;;;;;;6176723;23;20013;-49
2022/06/12 10:56:26;;;;;;;11.90;3.20;;;;;;;;;;6169501;23;20039;-47
2022/06/12 10:58:55;;;;;;;12.17;3.63;;;;;;;;;;6177505;23;20009;-46
2022/06/12 11:01:27;;;;;;;11.10;3.10;;;;;;;;;;6171352;23;20548;-48
2022/06/12 11:03:53;;;;;;;9.73;2.80;;;;;;;;;;6175755;23;20016;-47
2022/06/12 11:06:20;;;;;;;8.93;2.57;;;;;;;;;;6145319;23;20017;-49
2022/06/12 11:08:55;;;;;;;7.63;2.88;;;;;;;;;;6175148;23;20270;-51
2022/06/12 11:11:39;;;;;;;7.63;2.20;;;;;;;;;;6170436;23;20027;-45
2022/06/12 11:14:04;;;;;;;9.32;2.53;;;;;;;;;;6169900;23;20016;-49
2022/06/12 11:16:39;;;;;;;9.32;2.80;;;;;;;;;;6171467;23;20013;-47
2022/06/12 11:19:23;;;;;;;11.48;3.35;;;;;;;;;;6174607;23;20028;-51
2022/06/12 11:21:57;;;;;;;12.25;3.20;;;;;;;;;;6175859;23;20017;-49
2022/06/12 11:24:26;;;;;;;11.88;2.50;;;;;;;;;;6167998;23;20017;-46
2022/06/12 11:27:13;;;;;;;6.13;2.45;;;;;;;;;;6175033;23;20017;-46
2022/06/12 11:29:57;;;;;;;9.32;2.75;;;;;;;;;;6173035;23;20095;-47
2022/06/12 11:32:41;;;;;;;6.28;2.60;;;;;;;;;;6168893;23;20454;-47
2022/06/12 11:35:24;;;;;;;6.47;2.20;;;;;;;;;;6173892;23;20345;-48
2022/06/12 11:38:08;;;;;;;8.20;2.92;;;;;;;;;;6175089;23;20012;-46
2022/06/12 11:40:42;;;;;;;11.13;3.15;;;;;;;;;;6168333;23;20393;-48
2022/06/12 11:43:08;;;;;;;8.07;2.45;;;;;;;;;;6176274;23;20434;-49
2022/06/12 11:45:47;;;;;;;7.57;2.50;;;;;;;;;;6171352;23;20066;-48
2022/06/12 11:48:30;;;;;;;10.60;2.60;;;;;;;;;;6171421;23;20029;-46
2022/06/12 11:51:06;;;;;;;4.72;2.05;;;;;;;;;;6176762;23;20261;-50
2022/06/12 11:53:41;;;;;;;10.05;2.30;;;;;;;;;;6166974;23;20009;-49
2022/06/12 11:56:15;;;;;;;6.00;2.45;;;;;;;;;;6175571;23;20028;-49
2022/06/12 11:58:49;;;;;;;9.68;2.38;;;;;;;;;;6146653;23;20060;-47
2022/06/12 12:01:23;;;;;;;11.20;3.47;;;;;;;;;;6114628;23;20018;-51
2022/06/12 12:04:08;;;;;;;8.63;2.90;;;;;;;;;;6146343;23;20013;-47
2022/06/12 12:06:34;;;;;;;12.32;3.45;;;;;;;;;;6143311;23;20018;-51
2022/06/12 12:08:59;;;;;;;9.77;2.80;;;;;;;;;;6145198;23;20009;-47
2022/06/12 12:11:27;;;;;;;6.33;3.00;;;;;;;;;;6140726;23;20009;-48
2022/06/12 12:13:54;;;;;;;10.40;2.63;;;;;;;;;;6142358;23;20247;-49
2022/06/12 12:16:19;;;;;;;5.25;2.30;;;;;;;;;;6142723;23;20012;-48
2022/06/12 12:18:47;;;;;;;10.88;2.88;;;;;;;;;;6143616;23;20737;-50
2022/06/12 12:21:31;;;;;;;7.22;2.40;;;;;;;;;;6139760;23;20025;-50
2022/06/12 12:23:58;;;;;;;7.72;2.97;;;;;;;;;;6143068;23;20005;-52
2022/06/12 12:26:23;;;;;;;13.98;3.00;;;;;;;;;;6145616;23;20029;-48
2022/06/12 12:28:57;;;;;;;8.73;3.13;;;;;;;;;;6140470;23;20021;-47
2022/06/12 12:31:22;;;;;;;10.02;3.45;;;;;;;;;;6142849;23;20041;-47
2022/06/12 12:33:48;;;;;;;5.35;2.65;;;;;;;;;;6140956;23;20014;-50
2022/06/12 12:41:46;;;;;;;8.77;2.78;;;;;;;;;;6141661;23;20033;-51
2022/06/12 12:44:13;;;;;;;14.85;2.40;;;;;;;;;;6140663;23;20017;-47
2022/06/12 12:46:46;;;;;;;7.78;3.00;;;;;;;;;;6140617;23;20014;-48
2022/06/12 12:49:20;;;;;;;9.18;2.65;;;;;;;;;;6144405;23;20076;-46
2022/06/12 12:51:46;;;;;;;8.55;2.83;;;;;;;;;;6140315;23;20053;-51
2022/06/12 12:54:11;;;;;;;6.90;2.67;;;;;;;;;;6139795;23;20017;-49
2022/06/12 12:56:39;;;;;;;7.20;3.70;;;;;;;;;;6143052;23;20009;-51
2022/06/12 12:59:06;;;;;;;13.23;3.33;;;;;;;;;;6148806;23;20009;-48
2022/06/12 13:01:46;;;;;;;9.48;4.07;;;;;;;;;;6143050;23;20002;-52
2022/06/12 13:04:20;;;;;;;9.73;3.42;;;;;;;;;;6143943;23;20010;-48
2022/06/12 13:06:54;;;;;;;8.90;3.08;;;;;;;;;;6147470;23;20014;-51
2022/06/12 13:09:38;;;;;;;12.65;3.65;;;;;;;;;;6144289;23;20017;-47
2022/06/12 13:12:06;;;;;;;6.47;2.53;;;;;;;;;;6149974;23;20028;-48
2022/06/12 13:14:31;;;;;;;8.63;2.88;;;;;;;;;;6145846;23;20020;-47
2022/06/12 13:17:03;;;;;;;8.87;3.07;;;;;;;;;;6146865;23;20013;-51
2022/06/12 13:19:28;;;;;;;8.43;3.50;;;;;;;;;;6146190;23;20235;-46
2022/06/12 13:22:14;;;;;;;10.00;2.70;;;;;;;;;;6147168;23;20006;-48
2022/06/12 13:24:57;;;;;;;8.88;2.78;;;;;;;;;;6150292;23;20254;-49
2022/06/12 13:27:22;;;;;;;10.35;2.60;;;;;;;;;;6174864;23;20031;-48
2022/06/12 13:29:49;;;;;;;9.90;2.80;;;;;;;;;;6149247;23;20032;-46
2022/06/12 13:32:40;;;;;;;9.90;3.08;;;;;;;;;;6175074;23;20020;-50
2022/06/12 13:35:16;;;;;;;9.75;2.90;;;;;;;;;;6168139;23;20012;-48
2022/06/12 13:37:44;;;;;;;9.95;2.80;;;;;;;;;;6175889;23;20009;-47
2022/06/12 13:40:33;;;;;;;10.75;2.80;;;;;;;;;;6174528;23;20013;-52
2022/06/12 13:43:10;;;;;;;9.73;3.30;;;;;;;;;;6161422;23;20005;-48
2022/06/12 13:45:36;;;;;;;9.60;3.00;;;;;;;;;;6176164;23;20144;-47
2022/06/12 13:48:11;;;;;;;7.32;2.83;;;;;;;;;;6181922;23;20169;-48
2022/06/12 13:50:38;;;;;;;6.78;3.58;;;;;;;;;;6176371;23;20025;-49
2022/06/12 13:53:13;;;;;;;9.02;3.88;;;;;;;;;;6178021;23;20013;-46
2022/06/12 13:55:44;;;;;;;13.98;3.00;;;;;;;;;;6178324;23;20060;-46
2022/06/12 13:58:22;;;;;;;10.20;3.42;;;;;;;;;;6177772;23;20057;-48
2022/06/12 14:00:48;;;;;;;11.38;4.47;;;;;;;;;;6179912;23;20019;-49
2022/06/12 14:03:36;;;;;;;7.60;3.05;;;;;;;;;;6179170;23;20112;-49
2022/06/12 14:06:11;;;;;;;12.20;3.30;;;;;;;;;;6177414;23;20020;-51
2022/06/12 14:08:38;;;;;;;15.35;3.88;;;;;;;;;;6177823;23;20040;-52
2022/06/12 14:11:04;;;;;;;11.13;3.60;;;;;;;;;;6178513;23;20033;-51
2022/06/12 14:13:32;;;;;;;11.02;3.70;;;;;;;;;;6178668;23;20327;-51
2022/06/12 14:16:11;;;;;;;9.60;2.83;;;;;;;;;;6176672;23;20059;-48
2022/06/12 14:18:38;;;;;;;13.32;3.25;;;;;;;;;;6176361;23;20017;-48
2022/06/12 14:21:23;;;;;;;11.63;3.83;;;;;;;;;;6178260;23;20005;-49
2022/06/12 14:23:53;;;;;;;13.52;4.88;;;;;;;;;;6175924;23;20013;-47
2022/06/12 14:26:25;;;;;;;8.23;3.60;;;;;;;;;;6177473;23;20354;-49
2022/06/12 14:28:50;;;;;;;7.63;2.78;;;;;;;;;;6173083;23;20017;-51
2022/06/12 14:31:15;;;;;;;9.18;3.35;;;;;;;;;;6180335;23;20017;-48
2022/06/12 14:33:43;;;;;;;13.87;3.73;;;;;;;;;;6175895;23;20023;-51
2022/06/12 14:36:09;;;;;;;12.77;3.35;;;;;;;;;;6180705;23;20239;-49
2022/06/12 14:38:35;;;;;;;11.55;3.53;;;;;;;;;;6174680;23;20013;-50
2022/06/12 14:41:01;;;;;;;12.40;4.57;;;;;;;;;;6181141;23;20009;-47
2022/06/12 14:43:31;;;;;;;8.73;4.18;;;;;;;;;;6175050;23;20431;-51
2022/06/12 14:46:10;;;;;;;9.85;3.78;;;;;;;;;;6173990;23;20017;-46
2022/06/12 14:48:35;;;;;;;8.85;3.20;;;;;;;;;;6176645;23;20024;-50
2022/06/12 14:51:01;;;;;;;11.02;5.00;;;;;;;;;;6151628;23;20692;-47
2022/06/12 14:53:26;;;;;;;13.07;3.83;;;;;;;;;;6168665;23;20060;-48
2022/06/12 14:55:52;;;;;;;15.57;3.78;;;;;;;;;;6176373;23;20064;-49
2022/06/12 14:58:29;;;;;;;8.30;3.53;;;;;;;;;;6175161;23;20021;-50
2022/06/12 15:00:55;;;;;;;12.85;4.18;;;;;;;;;;6178702;23;20013;-47
2022/06/12 15:03:20;;;;;;;8.18;3.85;;;;;;;;;;6151920;23;20037;-50
2022/06/12 15:05:46;;;;;;;10.65;4.68;;;;;;;;;;6149535;23;20404;-47
2022/06/12 15:08:11;;;;;;;11.00;3.50;;;;;;;;;;6175685;23;20048;-48
2022/06/12 15:10:38;;;;;;;9.95;4.10;;;;;;;;;;6179502;23;20044;-49
2022/06/12 15:13:03;;;;;;;12.15;4.80;;;;;;;;;;6177916;23;20084;-49